Time;durP1;ratioP1;P1;durP2;ratioP2;P2;SDS_P1;SDS_P2;PMS_P1;PMS_P2;Temp;Humidity;BMP_temperature;BMP_pressure;BME280_temperature;BME280_humidity;BME280_pressure;Samples;Min_cycle;Max_cycle;Signal;HPM_P1;HPM_P2
2023/04/07 00:03:58;;;;;;;11.85;8.52;;;;;;;4.79;100.00;101710.31;10168358;28;20045;-67
2023/04/07 00:08:55;;;;;;;11.98;8.82;;;;;;;4.80;100.00;101717.38;10168555;28;20133;-68
2023/04/07 00:13:52;;;;;;;12.00;8.77;;;;;;;4.76;100.00;101710.84;10172796;28;20137;-68
2023/04/07 00:18:49;;;;;;;13.82;9.90;;;;;;;4.69;100.00;101702.09;10170612;28;20079;-68
2023/04/07 00:23:46;;;;;;;11.30;8.85;;;;;;;4.69;100.00;101712.09;10180259;28;20254;-68
2023/04/07 00:28:42;;;;;;;13.13;9.25;;;;;;;4.64;100.00;101702.84;10179852;28;20045;-68
2023/04/07 00:33:39;;;;;;;12.02;9.40;;;;;;;4.60;100.00;101709.03;10172396;28;20129;-68
2023/04/07 00:38:35;;;;;;;13.45;9.50;;;;;;;4.59;100.00;101712.78;10162356;28;20081;-68
2023/04/07 00:43:32;;;;;;;10.30;8.63;;;;;;;4.52;100.00;101706.75;10167590;28;20038;-68
2023/04/07 00:48:29;;;;;;;11.90;8.70;;;;;;;4.41;100.00;101712.06;10174459;28;20150;-67
2023/04/07 00:53:26;;;;;;;11.20;8.80;;;;;;;4.40;100.00;101710.41;10170608;28;20046;-68
2023/04/07 00:58:22;;;;;;;12.60;9.35;;;;;;;4.30;100.00;101699.47;10175650;28;20049;-68
2023/04/07 01:03:32;;;;;;;13.07;8.85;;;;;;;4.30;100.00;101710.28;10171460;28;20705;-68
2023/04/07 01:08:37;;;;;;;12.00;9.50;;;;;;;4.23;100.00;101704.25;10177871;28;20053;-68
2023/04/07 01:13:39;;;;;;;12.05;8.90;;;;;;;4.17;100.00;101706.03;10182247;28;20081;-68
2023/04/07 01:18:38;;;;;;;11.95;8.80;;;;;;;4.04;100.00;101701.03;10170256;28;20676;-68
2023/04/07 01:23:55;;;;;;;10.98;8.30;;;;;;;3.95;100.00;101702.50;10168153;28;20125;-68
2023/04/07 01:29:26;;;;;;;9.88;8.23;;;;;;;4.01;100.00;101701.50;10166633;28;20116;-68
2023/04/07 01:34:25;;;;;;;9.80;7.72;;;;;;;3.78;100.00;101702.53;10171625;28;20468;-68
2023/04/07 01:39:23;;;;;;;12.32;8.85;;;;;;;3.71;100.00;101701.88;10170053;28;20077;-68
2023/04/07 01:44:20;;;;;;;12.32;8.85;;;;;;;3.80;100.00;101700.38;10179309;28;20066;-68
2023/04/07 01:49:17;;;;;;;9.27;7.63;;;;;;;3.73;100.00;101705.97;10179640;28;20786;-68
2023/04/07 01:54:14;;;;;;;11.77;8.50;;;;;;;3.74;100.00;101706.81;10175398;28;20512;-68
2023/04/07 01:59:11;;;;;;;9.98;7.80;;;;;;;3.66;100.00;101704.50;10176739;28;20073;-68
2023/04/07 02:04:12;;;;;;;9.60;7.38;;;;;;;3.77;100.00;101703.59;10180273;28;20129;-68
2023/04/07 02:09:11;;;;;;;11.10;7.65;;;;;;;3.64;100.00;101707.44;10172464;28;20069;-68
2023/04/07 02:14:08;;;;;;;9.77;7.22;;;;;;;3.77;100.00;101706.31;10191054;28;20077;-68
2023/04/07 02:19:05;;;;;;;10.13;7.40;;;;;;;3.66;100.00;101701.81;10181291;28;20092;-68
2023/04/07 02:24:05;;;;;;;9.45;7.50;;;;;;;3.42;100.00;101710.09;10170364;28;20401;-68
2023/04/07 02:29:03;;;;;;;10.23;7.70;;;;;;;3.44;100.00;101710.66;10180195;28;20125;-67
2023/04/07 02:33:59;;;;;;;11.30;7.38;;;;;;;3.41;100.00;101719.25;10176732;28;20042;-68
2023/04/07 02:38:56;;;;;;;9.43;7.47;;;;;;;3.42;100.00;101715.50;10181382;28;20038;-68
2023/04/07 02:43:52;;;;;;;9.57;7.70;;;;;;;3.37;100.00;101723.53;10180034;28;20224;-68
2023/04/07 02:48:50;;;;;;;8.48;6.85;;;;;;;3.34;100.00;101724.00;10177846;28;20057;-68
2023/04/07 02:53:46;;;;;;;9.40;7.10;;;;;;;3.39;100.00;101721.41;10178730;28;20042;-68
2023/04/07 02:58:43;;;;;;;10.40;7.65;;;;;;;3.29;100.00;101727.44;10168667;28;20048;-68
2023/04/07 03:03:41;;;;;;;9.95;6.88;;;;;;;3.31;100.00;101724.50;10172781;28;20163;-68
2023/04/07 03:08:37;;;;;;;9.13;6.72;;;;;;;3.17;100.00;101727.50;10172735;28;20042;-68
2023/04/07 03:13:34;;;;;;;14.75;7.25;;;;;;;3.13;100.00;101722.84;10179054;28;20121;-68
2023/04/07 03:18:30;;;;;;;8.38;7.28;;;;;;;3.04;100.00;101719.72;10178716;28;20100;-68
2023/04/07 03:23:28;;;;;;;11.02;6.63;;;;;;;3.03;100.00;101728.88;10177247;28;20046;-68
2023/04/07 03:28:24;;;;;;;9.27;7.20;;;;;;;3.05;100.00;101729.47;10167943;28;20141;-68
2023/04/07 03:33:21;;;;;;;8.70;7.07;;;;;;;2.93;100.00;101734.09;10168924;28;20061;-68
2023/04/07 03:38:17;;;;;;;8.23;7.20;;;;;;;2.92;100.00;101729.75;10173482;28;20180;-69
2023/04/07 03:43:15;;;;;;;9.48;7.03;;;;;;;2.78;100.00;101736.50;10168579;28;20524;-68
2023/04/07 03:48:11;;;;;;;8.55;6.60;;;;;;;2.82;100.00;101748.47;10172785;28;20045;-69
2023/04/07 03:53:08;;;;;;;9.30;7.43;;;;;;;2.88;100.00;101755.63;10175936;28;20318;-69
2023/04/07 03:58:04;;;;;;;10.10;7.35;;;;;;;2.82;100.00;101759.28;10169798;28;20551;-69
2023/04/07 04:03:01;;;;;;;9.45;6.88;;;;;;;2.79;100.00;101752.47;10163664;28;20496;-68
2023/04/07 04:07:58;;;;;;;9.40;6.63;;;;;;;2.74;100.00;101758.59;10172515;28;20093;-69
2023/04/07 04:12:54;;;;;;;10.02;6.93;;;;;;;2.81;100.00;101768.44;10164022;28;20042;-68
2023/04/07 04:17:51;;;;;;;9.68;6.68;;;;;;;2.82;100.00;101759.28;10176767;28;20538;-68
2023/04/07 04:22:47;;;;;;;9.15;7.30;;;;;;;2.62;100.00;101755.13;10179704;28;20576;-68
2023/04/07 04:27:44;;;;;;;10.07;7.50;;;;;;;2.67;100.00;101765.19;10165859;28;20461;-69
2023/04/07 04:32:40;;;;;;;9.23;7.57;;;;;;;2.62;100.00;101778.59;10173857;28;20137;-68
2023/04/07 04:37:37;;;;;;;10.38;7.30;;;;;;;2.55;100.00;101770.59;10173038;28;20072;-68
2023/04/07 04:42:34;;;;;;;8.60;6.63;;;;;;;2.55;100.00;101770.59;10169665;28;20141;-68
2023/04/07 04:47:30;;;;;;;8.13;7.00;;;;;;;2.45;100.00;101786.59;10174445;28;20077;-68
2023/04/07 04:52:27;;;;;;;8.68;7.25;;;;;;;2.39;100.00;101792.94;10181777;28;20129;-68
2023/04/07 04:57:24;;;;;;;11.13;7.63;;;;;;;2.42;100.00;101797.88;10167072;28;20787;-68
2023/04/07 05:02:20;;;;;;;8.90;7.15;;;;;;;2.40;100.00;101800.00;10163283;28;20042;-68
2023/04/07 05:07:17;;;;;;;10.90;8.07;;;;;;;2.48;100.00;101799.63;10169624;28;20850;-68
2023/04/07 05:12:14;;;;;;;9.60;7.18;;;;;;;2.47;100.00;101806.09;10167835;28;20042;-68
2023/04/07 05:17:11;;;;;;;11.07;8.95;;;;;;;2.50;100.00;101805.59;10171603;28;20527;-68
2023/04/07 05:22:07;;;;;;;8.82;7.20;;;;;;;2.56;100.00;101815.47;10172179;28;20046;-68
2023/04/07 05:27:04;;;;;;;10.10;7.22;;;;;;;2.57;100.00;101827.91;10174188;28;20070;-68
2023/04/07 05:32:00;;;;;;;9.88;6.68;;;;;;;2.53;100.00;101837.56;10178797;28;20108;-68
2023/04/07 05:36:57;;;;;;;8.80;6.93;;;;;;;2.60;100.00;101835.53;10183573;28;20049;-68
2023/04/07 05:41:53;;;;;;;9.80;7.50;;;;;;;2.65;100.00;101835.66;10175507;28;20064;-68
2023/04/07 05:46:49;;;;;;;10.93;7.32;;;;;;;2.65;100.00;101838.34;10166003;28;20053;-68
2023/04/07 05:51:46;;;;;;;9.57;7.43;;;;;;;2.60;100.00;101859.84;10168286;28;20046;-68
2023/04/07 05:56:44;;;;;;;10.23;7.07;;;;;;;2.70;100.00;101862.75;10172802;28;20041;-68
2023/04/07 06:01:41;;;;;;;13.15;7.40;;;;;;;2.73;100.00;101864.97;10168999;28;20053;-68
2023/04/07 06:06:38;;;;;;;12.75;7.60;;;;;;;2.75;100.00;101870.16;10169143;28;20088;-68
2023/04/07 06:11:34;;;;;;;9.77;7.25;;;;;;;2.86;100.00;101863.91;10172699;28;20551;-68
2023/04/07 06:16:31;;;;;;;9.95;7.50;;;;;;;2.95;100.00;101872.47;10174845;28;20504;-68
2023/04/07 06:21:27;;;;;;;10.20;8.10;;;;;;;2.97;100.00;101877.63;10179001;28;20042;-68
2023/04/07 06:26:24;;;;;;;10.68;7.93;;;;;;;3.13;100.00;101885.81;10169194;28;20480;-68
2023/04/07 06:31:20;;;;;;;10.35;7.80;;;;;;;3.25;100.00;101893.06;10177220;28;20066;-68
2023/04/07 06:36:17;;;;;;;11.50;8.10;;;;;;;3.35;100.00;101891.38;10179371;28;20046;-68
2023/04/07 06:41:15;;;;;;;10.00;7.07;;;;;;;3.45;100.00;101904.28;10178295;28;20072;-67
2023/04/07 06:46:12;;;;;;;10.80;8.07;;;;;;;3.53;100.00;101901.19;10176147;28;20046;-68
2023/04/07 06:51:08;;;;;;;9.05;7.38;;;;;;;3.67;100.00;101900.91;10170237;28;20043;-68
2023/04/07 06:56:10;;;;;;;9.13;7.93;;;;;;;3.79;100.00;101899.78;10178828;28;20043;-68
2023/04/07 07:01:06;;;;;;;9.95;7.43;;;;;;;3.97;100.00;101906.03;10179593;28;20045;-68
2023/04/07 07:06:03;;;;;;;8.57;6.78;;;;;;;4.17;100.00;101910.97;10164164;28;20166;-69
2023/04/07 07:10:59;;;;;;;10.73;7.20;;;;;;;4.31;100.00;101912.28;10166108;28;20134;-67
2023/04/07 07:15:56;;;;;;;10.10;7.55;;;;;;;4.47;100.00;101909.81;10155807;28;20069;-67
2023/04/07 07:20:52;;;;;;;8.88;7.10;;;;;;;4.64;100.00;101910.59;10171870;28;20086;-67
2023/04/07 07:25:49;;;;;;;9.68;7.90;;;;;;;4.82;100.00;101913.03;10163966;28;20156;-67
2023/04/07 07:30:45;;;;;;;9.85;6.85;;;;;;;5.11;100.00;101912.88;10161483;28;20096;-67
2023/04/07 07:35:42;;;;;;;12.50;7.90;;;;;;;5.26;100.00;101918.47;10176202;28;20041;-67
2023/04/07 07:40:38;;;;;;;10.80;7.20;;;;;;;5.42;100.00;101921.38;10170889;28;20041;-67
2023/04/07 07:45:35;;;;;;;13.85;7.22;;;;;;;5.64;100.00;101930.31;10159968;28;20116;-67
2023/04/07 07:50:31;;;;;;;9.05;7.20;;;;;;;5.93;100.00;101926.53;10169330;28;20080;-67
2023/04/07 07:55:28;;;;;;;11.70;7.50;;;;;;;6.05;100.00;101930.75;10177922;28;20042;-67
2023/04/07 08:00:24;;;;;;;13.00;7.75;;;;;;;6.21;100.00;101939.03;10163461;28;20100;-67
2023/04/07 08:05:22;;;;;;;8.93;7.45;;;;;;;6.40;100.00;101943.00;10183511;28;20593;-67
2023/04/07 08:10:19;;;;;;;10.15;7.43;;;;;;;6.53;100.00;101936.31;10169134;28;20542;-67
2023/04/07 08:15:15;;;;;;;11.63;7.80;;;;;;;6.68;100.00;101946.47;10169390;28;20052;-67
2023/04/07 08:20:12;;;;;;;10.38;6.85;;;;;;;6.82;100.00;101947.63;10181752;28;20046;-67
2023/04/07 08:25:09;;;;;;;8.82;6.80;;;;;;;7.04;100.00;101957.56;10167957;28;20046;-67
2023/04/07 08:30:06;;;;;;;11.98;7.47;;;;;;;7.16;100.00;101952.72;10177106;28;20062;-67
2023/04/07 08:35:03;;;;;;;9.07;7.28;;;;;;;7.44;100.00;101956.13;10172503;28;20046;-68
2023/04/07 08:40:00;;;;;;;9.40;6.78;;;;;;;7.56;100.00;101959.44;10174040;28;20057;-67
2023/04/07 08:45:02;;;;;;;8.20;6.55;;;;;;;7.61;100.00;101956.72;10174844;28;20491;-67
2023/04/07 08:50:04;;;;;;;11.23;7.25;;;;;;;7.77;100.00;101960.31;10168208;28;20053;-67
2023/04/07 08:55:02;;;;;;;9.38;7.57;;;;;;;8.05;100.00;101956.25;10163404;28;20465;-67
2023/04/07 09:00:04;;;;;;;8.93;6.95;;;;;;;8.42;100.00;101966.97;10180411;28;20112;-67
2023/04/07 09:05:06;;;;;;;10.45;7.57;;;;;;;8.61;100.00;101959.06;10180615;28;20046;-67
2023/04/07 09:10:03;;;;;;;7.57;6.28;;;;;;;8.96;100.00;101954.63;10180764;28;20128;-68
2023/04/07 09:14:59;;;;;;;7.35;6.57;;;;;;;9.12;100.00;101951.84;10177580;28;20412;-67
2023/04/07 09:19:58;;;;;;;7.97;5.72;;;;;;;9.04;100.00;101956.78;10184222;28;20175;-67
2023/04/07 09:25:15;;;;;;;9.15;7.10;;;;;;;9.16;100.00;101959.19;10183961;28;20500;-67
2023/04/07 09:30:14;;;;;;;9.07;6.82;;;;;;;9.33;100.00;101953.44;10184774;28;20510;-68
2023/04/07 09:35:10;;;;;;;10.25;7.53;;;;;;;9.44;100.00;101954.19;10177642;28;20132;-68
2023/04/07 09:40:07;;;;;;;8.52;6.93;;;;;;;9.44;100.00;101949.53;10198132;28;20061;-67
2023/04/07 09:45:04;;;;;;;13.15;7.82;;;;;;;9.67;99.89;101956.25;10178877;28;20133;-68
2023/04/07 09:50:05;;;;;;;11.57;7.70;;;;;;;9.80;94.42;101946.63;10174657;28;20046;-68
2023/04/07 09:55:05;;;;;;;11.05;6.95;;;;;;;9.94;92.87;101951.47;10178557;28;20030;-69
2023/04/07 10:00:01;;;;;;;9.10;7.78;;;;;;;10.23;83.79;101946.88;10177628;28;20082;-68
2023/04/07 10:04:58;;;;;;;8.63;7.38;;;;;;;10.55;85.62;101945.53;10177941;28;20478;-68
2023/04/07 10:09:56;;;;;;;8.43;6.68;;;;;;;10.96;81.15;101945.16;10185893;28;20042;-68
2023/04/07 10:14:54;;;;;;;8.00;7.10;;;;;;;10.93;80.02;101951.19;10174978;28;20069;-68
2023/04/07 10:19:51;;;;;;;11.13;8.18;;;;;;;11.70;69.12;101955.75;10171857;28;20133;-68
2023/04/07 10:25:06;;;;;;;10.93;8.25;;;;;;;12.29;68.91;101954.31;10171043;28;20072;-67
2023/04/07 10:30:06;;;;;;;8.80;7.35;;;;;;;13.31;66.38;101945.38;10170930;28;20060;-69
2023/04/07 10:35:02;;;;;;;8.55;7.18;;;;;;;14.68;53.91;101943.25;10176789;28;20042;-67
2023/04/07 10:40:17;;;;;;;11.63;7.75;;;;;;;13.74;58.62;101947.72;10184348;28;20133;-66
2023/04/07 10:45:14;;;;;;;9.52;6.68;;;;;;;14.33;55.75;101948.53;10173819;28;20046;-66
2023/04/07 10:50:22;;;;;;;7.85;6.90;;;;;;;14.22;60.84;101947.16;10172364;28;20077;-67
2023/04/07 10:55:32;;;;;;;9.52;6.65;;;;;;;15.39;56.41;101940.47;10173959;28;20413;-66
2023/04/07 11:00:29;;;;;;;10.18;7.40;;;;;;;15.92;46.40;101946.88;10172009;28;20046;-67
2023/04/07 11:05:25;;;;;;;9.07;7.05;;;;;;;15.98;46.50;101945.56;10179051;28;20042;-67
2023/04/07 11:10:22;;;;;;;9.77;7.13;;;;;;;15.24;50.36;101954.69;10179348;28;20189;-67
2023/04/07 11:15:20;;;;;;;10.48;7.38;;;;;;;16.12;51.56;101946.22;10172188;28;20504;-67
2023/04/07 11:20:17;;;;;;;8.38;7.47;;;;;;;16.44;50.28;101944.06;10185228;28;20480;-67
2023/04/07 11:25:20;;;;;;;8.23;7.43;;;;;;;16.59;45.89;101949.09;10162536;28;20054;-67
2023/04/07 11:30:17;;;;;;;7.10;6.40;;;;;;;17.58;45.73;101944.41;10179788;28;20488;-67
2023/04/07 11:35:15;;;;;;;7.97;7.18;;;;;;;18.14;46.59;101938.63;10166793;28;20141;-67
2023/04/07 11:40:15;;;;;;;7.90;6.70;;;;;;;17.44;45.07;101950.19;10174998;28;20101;-67
2023/04/07 11:45:17;;;;;;;7.55;6.80;;;;;;;17.14;47.99;101957.69;10168505;28;20057;-67
2023/04/07 11:50:13;;;;;;;6.77;6.07;;;;;;;17.31;39.79;101948.47;10157731;28;20054;-67
2023/04/07 11:55:21;;;;;;;7.22;6.53;;;;;;;17.90;40.49;101947.63;10178643;28;20046;-67
2023/04/07 12:00:19;;;;;;;8.57;7.20;;;;;;;18.20;40.76;101953.88;10182951;28;20475;-67
2023/04/07 12:05:16;;;;;;;9.45;7.40;;;;;;;18.95;40.85;101950.97;10174230;28;20571;-67
2023/04/07 12:10:20;;;;;;;7.28;6.57;;;;;;;18.52;35.90;101955.03;10169876;28;20060;-67
2023/04/07 12:15:16;;;;;;;8.02;6.60;;;;;;;19.22;34.51;101948.69;10167352;28;20074;-67
2023/04/07 12:20:14;;;;;;;7.75;6.80;;;;;;;20.45;31.01;101948.38;10174589;28;20052;-67
2023/04/07 12:25:10;;;;;;;7.38;6.32;;;;;;;20.96;31.14;101967.97;10174287;28;20504;-68
2023/04/07 12:30:07;;;;;;;7.25;6.57;;;;;;;21.12;27.79;101966.00;10174045;28;20047;-68
2023/04/07 12:35:05;;;;;;;7.68;6.88;;;;;;;20.93;28.72;101968.69;10166581;28;20534;-67
2023/04/07 12:40:01;;;;;;;6.78;6.07;;;;;;;21.76;28.92;101961.13;10157578;28;20057;-67
2023/04/07 12:44:58;;;;;;;11.70;6.40;;;;;;;22.63;28.37;101960.88;10162122;28;20046;-67
2023/04/07 12:49:55;;;;;;;6.70;6.10;;;;;;;22.44;26.80;101956.13;10161055;28;20398;-67
2023/04/07 12:54:52;;;;;;;6.78;6.03;;;;;;;22.97;26.24;101956.28;10164724;28;20064;-67
2023/04/07 12:59:48;;;;;;;6.15;5.55;;;;;;;23.10;27.74;101965.31;10171666;28;20129;-67
2023/04/07 13:04:45;;;;;;;6.47;5.88;;;;;;;22.55;28.36;101964.72;10171116;28;20045;-67
2023/04/07 13:09:42;;;;;;;7.00;5.55;;;;;;;21.77;28.33;101961.91;10167746;28;20046;-67
2023/04/07 13:14:40;;;;;;;6.72;5.65;;;;;;;21.63;27.10;101951.31;10172085;28;20042;-67
2023/04/07 13:19:52;;;;;;;5.40;4.90;;;;;;;21.52;30.24;101953.84;10161005;28;20074;-67
2023/04/07 13:24:49;;;;;;;6.25;5.65;;;;;;;22.35;31.04;101948.03;10180245;28;20081;-67
2023/04/07 13:29:46;;;;;;;6.32;5.72;;;;;;;23.22;26.23;101951.13;10170130;28;20046;-67
2023/04/07 13:34:43;;;;;;;6.65;5.95;;;;;;;23.65;24.60;101943.41;10168235;28;20046;-67
2023/04/07 13:39:40;;;;;;;6.10;5.60;;;;;;;22.68;29.06;101952.22;10168477;28;20041;-67
2023/04/07 13:44:38;;;;;;;6.60;6.00;;;;;;;21.26;29.12;101948.84;10169718;28;20046;-67
2023/04/07 13:49:35;;;;;;;6.15;5.60;;;;;;;22.48;29.98;101952.25;10175903;28;20116;-67
2023/04/07 13:54:31;;;;;;;6.95;6.25;;;;;;;23.14;27.55;101955.00;10173204;28;20053;-67
2023/04/07 13:59:28;;;;;;;6.65;6.15;;;;;;;21.57;36.03;101953.56;10162289;28;20408;-67
2023/04/07 14:04:24;;;;;;;7.35;6.30;;;;;;;21.98;37.54;101956.81;10191406;28;20043;-68
2023/04/07 14:09:21;;;;;;;8.20;6.38;;;;;;;22.41;37.10;101940.97;10168791;28;20057;-67
2023/04/07 14:14:17;;;;;;;7.68;6.03;;;;;;;23.08;38.33;101945.34;10170643;28;20068;-67
2023/04/07 14:19:14;;;;;;;6.88;5.95;;;;;;;20.61;46.44;101943.66;10183607;28;20050;-68
2023/04/07 14:24:10;;;;;;;7.25;6.30;;;;;;;21.49;47.81;101946.22;10175711;28;20073;-67
2023/04/07 14:29:07;;;;;;;7.20;6.50;;;;;;;19.72;52.38;101951.03;10180121;28;20061;-67
2023/04/07 14:34:04;;;;;;;8.40;6.43;;;;;;;20.25;56.04;101956.53;10175864;28;20042;-67
2023/04/07 14:39:00;;;;;;;10.63;6.60;;;;;;;16.99;76.85;101964.59;10172822;28;20595;-67
2023/04/07 14:43:57;;;;;;;7.47;6.15;;;;;;;16.65;82.46;101979.28;10177452;28;20034;-67
2023/04/07 14:48:54;;;;;;;6.95;6.18;;;;;;;15.84;89.04;101978.03;10178728;28;20042;-67
2023/04/07 14:53:54;;;;;;;8.73;6.75;;;;;;;14.01;99.14;101997.13;10178552;28;20125;-67
2023/04/07 14:58:51;;;;;;;6.50;5.90;;;;;;;13.97;100.00;101989.81;10171741;28;20105;-67
2023/04/07 15:03:47;;;;;;;6.28;5.65;;;;;;;13.52;100.00;101990.50;10182983;28;20049;-67
2023/04/07 15:08:45;;;;;;;7.15;6.20;;;;;;;13.30;100.00;101999.50;10172699;28;20498;-67
2023/04/07 15:13:41;;;;;;;10.60;6.70;;;;;;;12.13;100.00;102011.31;10180401;28;20045;-67
2023/04/07 15:18:40;;;;;;;7.47;6.20;;;;;;;12.80;100.00;102002.84;10171927;28;20208;-67
2023/04/07 15:23:38;;;;;;;8.55;6.47;;;;;;;13.14;100.00;102012.66;10173625;28;20044;-67
2023/04/07 15:28:34;;;;;;;7.47;5.95;;;;;;;12.87;100.00;102015.38;10177717;28;20054;-67
2023/04/07 15:33:31;;;;;;;9.10;7.15;;;;;;;12.78;100.00;102010.56;10176487;28;20554;-67
2023/04/07 15:38:28;;;;;;;6.95;6.25;;;;;;;11.92;100.00;102021.75;10170720;28;20137;-66
2023/04/07 15:43:24;;;;;;;6.88;6.22;;;;;;;11.78;100.00;102020.84;10171860;28;20069;-67
2023/04/07 15:48:21;;;;;;;9.27;6.85;;;;;;;11.36;100.00;102033.41;10183973;28;20084;-67
2023/04/07 15:53:17;;;;;;;9.23;6.47;;;;;;;10.66;100.00;102039.28;10172340;28;20093;-67
2023/04/07 15:58:14;;;;;;;8.85;6.22;;;;;;;10.94;100.00;102029.44;10170202;28;20046;-67
2023/04/07 16:03:10;;;;;;;8.57;6.68;;;;;;;11.20;100.00;102042.88;10177639;28;20069;-67
2023/04/07 16:08:07;;;;;;;8.18;6.32;;;;;;;10.82;100.00;102048.16;10173612;28;20107;-67
2023/04/07 16:13:03;;;;;;;6.22;5.63;;;;;;;10.44;100.00;102048.75;10174154;28;20042;-67
2023/04/07 16:18:03;;;;;;;7.78;6.70;;;;;;;10.52;100.00;102044.56;10172067;28;20519;-67
2023/04/07 16:23:00;;;;;;;8.52;7.03;;;;;;;10.52;100.00;102044.56;10172078;28;20050;-67
2023/04/07 16:27:56;;;;;;;9.63;7.70;;;;;;;10.24;100.00;102054.31;10167891;28;20125;-67
2023/04/07 16:32:53;;;;;;;13.00;7.78;;;;;;;9.62;100.00;102054.59;10174594;28;20038;-67
2023/04/07 16:37:49;;;;;;;7.88;7.07;;;;;;;9.68;100.00;102063.59;10169249;28;20072;-66
2023/04/07 16:42:46;;;;;;;9.73;7.40;;;;;;;9.20;100.00;102076.81;10173840;28;20038;-67
2023/04/07 16:47:43;;;;;;;10.77;8.10;;;;;;;9.01;100.00;102074.66;10171321;28;20159;-66
2023/04/07 16:52:40;;;;;;;8.57;6.97;;;;;;;8.99;100.00;102074.09;10164322;28;20065;-67
2023/04/07 16:57:36;;;;;;;7.13;6.35;;;;;;;8.75;100.00;102081.19;10171039;28;20047;-67
2023/04/07 17:02:33;;;;;;;10.30;7.45;;;;;;;9.18;100.00;102090.72;10169999;28;20621;-66
2023/04/07 17:07:30;;;;;;;7.10;6.40;;;;;;;9.09;100.00;102094.28;10174085;28;20070;-67
2023/04/07 17:12:26;;;;;;;7.30;6.60;;;;;;;9.24;100.00;102103.28;10172441;28;20069;-67
2023/04/07 17:17:23;;;;;;;8.98;6.40;;;;;;;8.98;100.00;102109.84;10177017;28;20046;-67
2023/04/07 17:22:19;;;;;;;7.43;6.55;;;;;;;9.00;100.00;102122.09;10177309;28;20042;-67
2023/04/07 17:27:16;;;;;;;6.47;5.88;;;;;;;8.92;100.00;102128.13;10205415;28;20054;-67
2023/04/07 17:32:13;;;;;;;6.70;5.97;;;;;;;8.66;100.00;102140.91;10181223;28;20559;-67
2023/04/07 17:37:09;;;;;;;7.32;6.15;;;;;;;8.55;100.00;102145.50;10173586;28;20045;-67
2023/04/07 17:42:06;;;;;;;7.38;6.13;;;;;;;8.34;100.00;102160.97;10175740;28;20496;-67
2023/04/07 17:47:02;;;;;;;8.88;7.15;;;;;;;8.18;100.00;102146.47;10182450;28;20049;-67
2023/04/07 17:51:59;;;;;;;10.00;7.38;;;;;;;8.05;100.00;102163.28;10182689;28;20072;-67
2023/04/07 17:56:56;;;;;;;10.50;8.52;;;;;;;7.96;100.00;102164.88;10178931;28;20042;-67
2023/04/07 18:01:53;;;;;;;12.43;8.57;;;;;;;8.01;100.00;102173.09;10180361;28;20062;-67
2023/04/07 18:06:49;;;;;;;10.27;8.10;;;;;;;7.88;100.00;102170.84;10184748;28;20052;-67
2023/04/07 18:11:46;;;;;;;12.85;8.18;;;;;;;7.77;100.00;102173.50;10176250;28;20538;-67
2023/04/07 18:16:42;;;;;;;10.50;7.82;;;;;;;7.86;100.00;102170.28;10175363;28;20483;-67
2023/04/07 18:21:39;;;;;;;8.07;7.28;;;;;;;7.64;100.00;102178.59;10193187;28;20041;-67
2023/04/07 18:26:36;;;;;;;8.60;7.32;;;;;;;7.74;100.00;102182.19;10181902;28;20080;-68
2023/04/07 18:31:32;;;;;;;9.57;7.15;;;;;;;7.70;100.00;102189.22;10181078;28;20582;-67
2023/04/07 18:36:29;;;;;;;8.43;7.53;;;;;;;7.70;100.00;102194.69;10175719;28;20042;-68
2023/04/07 18:41:26;;;;;;;10.82;7.28;;;;;;;7.49;100.00;102209.22;10180314;28;20042;-67
2023/04/07 18:46:22;;;;;;;11.10;7.32;;;;;;;7.43;100.00;102200.22;10185665;28;20053;-67
2023/04/07 18:51:19;;;;;;;9.50;7.80;;;;;;;7.53;100.00;102205.72;10183766;28;20048;-67
2023/04/07 18:56:15;;;;;;;10.65;8.63;;;;;;;6.93;100.00;102202.22;10182048;28;20048;-67
2023/04/07 19:01:12;;;;;;;11.20;8.68;;;;;;;7.15;100.00;102215.75;10170574;28;20514;-66
2023/04/07 19:06:13;;;;;;;10.68;9.15;;;;;;;7.27;100.00;102212.88;10173671;28;20046;-67
2023/04/07 19:11:10;;;;;;;9.10;8.20;;;;;;;7.25;100.00;102220.47;10176868;28;20526;-67
2023/04/07 19:16:07;;;;;;;13.52;9.80;;;;;;;6.74;100.00;102228.13;10181352;28;20038;-67
2023/04/07 19:21:05;;;;;;;13.73;9.23;;;;;;;7.27;100.00;102226.47;10187297;28;20042;-67
2023/04/07 19:26:02;;;;;;;10.95;9.73;;;;;;;7.25;100.00;102235.97;10181805;28;20494;-67
2023/04/07 19:30:58;;;;;;;11.40;9.32;;;;;;;7.16;100.00;102232.91;10179602;28;20046;-68
2023/04/07 19:35:55;;;;;;;12.68;9.07;;;;;;;6.99;100.00;102237.66;10169258;28;20133;-68
2023/04/07 19:40:52;;;;;;;12.52;9.15;;;;;;;6.99;100.00;102237.66;10155874;28;20046;-68
2023/04/07 19:45:48;;;;;;;11.95;9.73;;;;;;;7.19;100.00;102235.09;10177737;28;20054;-68
2023/04/07 19:50:47;;;;;;;13.40;8.98;;;;;;;6.99;100.00;102237.66;10173473;28;20629;-68
2023/04/07 19:55:47;;;;;;;11.85;9.40;;;;;;;7.05;100.00;102242.03;10184674;28;20480;-68
2023/04/07 20:00:47;;;;;;;10.77;8.68;;;;;;;6.98;100.00;102241.41;10189559;28;20042;-68
2023/04/07 20:05:44;;;;;;;12.85;10.52;;;;;;;6.41;100.00;102253.56;10167516;28;20056;-68
2023/04/07 20:10:40;;;;;;;10.02;8.63;;;;;;;7.01;100.00;102251.78;10166096;28;20038;-69
2023/04/07 20:15:37;;;;;;;10.75;8.55;;;;;;;6.89;100.00;102238.34;10169217;28;20041;-68
2023/04/07 20:20:33;;;;;;;8.93;8.10;;;;;;;6.74;100.00;102250.69;10180081;28;20045;-68
2023/04/07 20:25:29;;;;;;;9.60;7.55;;;;;;;6.74;100.00;102253.41;10167930;28;20680;-68
2023/04/07 20:30:26;;;;;;;8.60;7.80;;;;;;;6.67;100.00;102257.41;10177822;28;20497;-69
2023/04/07 20:35:22;;;;;;;10.63;8.02;;;;;;;6.79;100.00;102257.25;10173479;28;20096;-68
2023/04/07 20:40:19;;;;;;;8.75;7.88;;;;;;;6.76;100.00;102258.59;10163942;28;20507;-68
2023/04/07 20:45:15;;;;;;;7.90;7.10;;;;;;;6.80;100.00;102262.47;10175291;28;20054;-69
2023/04/07 20:50:12;;;;;;;8.90;7.13;;;;;;;7.01;100.00;102270.81;10169317;28;20129;-69
2023/04/07 20:55:09;;;;;;;8.88;7.95;;;;;;;6.73;100.00;102267.28;10175885;28;20042;-69
2023/04/07 21:00:06;;;;;;;9.40;7.60;;;;;;;6.88;100.00;102259.28;10166654;28;20504;-69
2023/04/07 21:05:03;;;;;;;10.07;8.27;;;;;;;6.65;100.00;102264.97;10174917;28;20492;-68
2023/04/07 21:10:00;;;;;;;10.30;7.03;;;;;;;6.78;100.00;102270.03;10173267;28;20495;-68
2023/04/07 21:14:56;;;;;;;10.27;7.65;;;;;;;6.92;100.00;102271.28;10173595;28;20046;-68
2023/04/07 21:19:53;;;;;;;13.13;7.90;;;;;;;6.88;100.00;102275.59;10181885;28;20125;-68
2023/04/07 21:24:51;;;;;;;9.65;7.18;;;;;;;6.68;100.00;102275.34;10171023;28;20046;-68
2023/04/07 21:29:48;;;;;;;11.07;8.45;;;;;;;6.39;100.00;102270.09;10171808;28;20081;-68
2023/04/07 21:34:44;;;;;;;13.20;9.15;;;;;;;6.58;100.00;102275.22;10173037;28;20545;-68
2023/04/07 21:39:41;;;;;;;12.30;8.90;;;;;;;6.59;100.00;102268.69;10171923;28;20528;-68
2023/04/07 21:44:37;;;;;;;13.73;9.57;;;;;;;6.32;100.00;102277.63;10174351;28;20467;-68
2023/04/07 21:49:37;;;;;;;12.38;8.75;;;;;;;6.49;100.00;102272.94;10172296;28;20049;-66
2023/04/07 21:54:33;;;;;;;14.57;9.85;;;;;;;6.75;100.00;102270.53;10167997;28;20038;-67
2023/04/07 21:59:30;;;;;;;14.98;10.20;;;;;;;6.65;100.00;102267.69;10166438;28;20504;-67
2023/04/07 22:04:27;;;;;;;13.50;9.90;;;;;;;6.62;100.00;102270.94;10170098;28;20069;-68
2023/04/07 22:09:25;;;;;;;12.55;9.73;;;;;;;6.73;100.00;102262.66;10169133;28;20109;-67
2023/04/07 22:14:23;;;;;;;15.02;9.98;;;;;;;6.76;100.00;102266.75;10162402;28;20129;-68
2023/04/07 22:19:20;;;;;;;12.80;9.98;;;;;;;6.61;100.00;102263.84;10167335;28;20049;-67
2023/04/07 22:24:16;;;;;;;13.18;10.13;;;;;;;6.59;100.00;102268.69;10171094;28;20122;-69
2023/04/07 22:29:13;;;;;;;16.80;10.40;;;;;;;6.59;100.00;102266.84;10173670;28;20038;-68
2023/04/07 22:34:10;;;;;;;14.05;10.27;;;;;;;6.51;100.00;102270.78;10176732;28;20495;-68
2023/04/07 22:39:07;;;;;;;15.82;11.18;;;;;;;6.48;100.00;102274.03;10172636;28;20507;-68
2023/04/07 22:44:04;;;;;;;13.05;9.85;;;;;;;6.69;100.00;102277.00;10172882;28;20051;-68